Orofino, ID

4:38 PM PST on December 28, 2014 (GMT -0800)
Lewiston-Nez Perce County | Change Station
CLOSE
Current Station
Airport
Location: Lewiston,
Elevation: 1437 ft
Nearby Weather Stations

Elev 1437 ft 46.37 °N, 117.02 °W | Updated 42 minutes ago

Overcast
Overcast
36 °F
Feels Like 31 °F
N
6
Wind Variable Wind from SSE

Today
High -- | Low -- °F
--% Chance of Precip.
Yesterday
High -- | Low -- °F
Precip. -- in
7:27 AM 4:04 PM
First Quarter, 53% visible
Pressure 30.14 in
Visibility 10.0 miles
Clouds Mostly Cloudy 4200 ft
Overcast 7500 ft
Windchill 31 °F
Dew Point 34 °F
Humidity 93%
Rainfall 0.02 in
Snow Depth Not available.
UV 0 out of 12
Pollen .10 out of 12
Air Quality Not available.
Flu Activity Not available.
METAR KLWS 282356Z AUTO 16005KT 10SM BKN042 OVC075 02/01 A3010 RMK AO2 RAE02 SLP205 P0000 60002 T00220011 10050 20022 53004

More Conditions Fewer Conditions

Pressure 30.14 in
Visibility 10.0 miles
Clouds Mostly Cloudy 4200 ft
Overcast 7500 ft
Windchill 31 °F
Dew Point 34 °F
Humidity 93%
Rainfall 0.02 in
Snow Depth Not available.
UV 0 out of 12
Pollen .10 out of 12
Air Quality Not available.
Flu Activity Not available.
METAR KLWS 282356Z AUTO 16005KT 10SM BKN042 OVC075 02/01 A3010 RMK AO2 RAE02 SLP205 P0000 60002 T00220011 10050 20022 53004

More Conditions Fewer Conditions

10-Day Weather Forecast

Almanac

Astronomy

Dec. 28, 2014 Rise Set
Actual Time
Civil Twilight
Nautical Twilight
Astronomical Twilight
Moon
Length of Visible Light
Length of Day
Tomorrow will be .
, % of the Moon is Illuminated

Today's Extremes

State Highs State Lows

Community

WunderPhotos

Upload Photos

1,781,472 photos uploaded!

WunderBlogs® & News

Nearby

Air Quality

  Air Quality AQ Index Pollutant
Not available.

Snow Depth

Station Depth Elevation

Earthquake Activity

City Distance Mag. Time & Date
Minimum magnitude displayed is 2.5.

Coastal Water Temperatures

Place Temperature

Nearby Weather Stations